createdAt,value
2018-10-02T00:02:47.012Z,2.60
2018-10-02T00:07:31.056Z,2.37
2018-10-02T00:12:20.746Z,2.67
2018-10-02T00:17:04.464Z,2.33
2018-10-02T00:21:49.114Z,2.57
2018-10-02T00:26:34.020Z,3.07
2018-10-02T00:31:18.435Z,2.40
2018-10-02T00:36:02.920Z,2.90
2018-10-02T00:40:47.750Z,3.27
2018-10-02T00:45:32.864Z,3.53
2018-10-02T00:50:16.750Z,3.43
2018-10-02T00:55:00.632Z,3.80
2018-10-02T00:59:45.098Z,3.50
2018-10-02T01:04:29.639Z,4.27
2018-10-02T01:09:13.766Z,4.10
2018-10-02T01:13:57.573Z,4.33
2018-10-02T01:18:41.330Z,3.63
2018-10-02T01:23:25.322Z,3.70
2018-10-02T01:28:09.454Z,3.20
2018-10-02T01:32:53.660Z,3.60
2018-10-02T01:37:37.470Z,4.00
2018-10-02T01:42:21.344Z,3.80
2018-10-02T01:47:05.403Z,3.77
2018-10-02T01:51:49.485Z,3.30
2018-10-02T01:56:33.543Z,2.90
2018-10-02T02:01:18.192Z,3.00
2018-10-02T02:06:02.143Z,2.80
2018-10-02T02:10:46.292Z,2.70
2018-10-02T02:15:30.300Z,2.70
2018-10-02T02:20:14.458Z,1.97
2018-10-02T02:24:58.357Z,2.13
2018-10-02T02:29:42.332Z,2.20
2018-10-02T02:34:26.525Z,2.20
2018-10-02T02:39:10.360Z,2.70
2018-10-02T02:43:54.294Z,2.57
2018-10-02T02:48:43.474Z,2.70
2018-10-02T02:53:27.428Z,3.10
2018-10-02T02:58:11.462Z,2.90
2018-10-02T03:02:56.282Z,3.03
2018-10-02T03:13:10.376Z,3.70
2018-10-02T03:17:58.414Z,3.40
2018-10-02T03:27:44.503Z,3.33
2018-10-02T03:32:30.427Z,3.10
2018-10-02T03:37:14.697Z,3.80
2018-10-02T03:41:58.698Z,3.50
2018-10-02T03:46:42.687Z,4.03
2018-10-02T03:51:26.864Z,4.13
2018-10-02T03:56:11.124Z,4.83
2018-10-02T04:00:55.368Z,4.50
2018-10-02T04:05:39.544Z,4.30
2018-10-02T04:10:23.718Z,4.60
2018-10-02T04:15:08.099Z,4.70
2018-10-02T04:19:52.476Z,4.70
2018-10-02T04:24:36.501Z,5.20
2018-10-02T04:29:21.917Z,5.77
2018-10-02T04:34:06.258Z,6.23
2018-10-02T04:38:50.288Z,6.07
2018-10-02T04:43:34.355Z,6.23
2018-10-02T04:48:18.655Z,7.33
2018-10-02T04:53:02.687Z,6.87
2018-10-02T04:57:46.928Z,7.37
2018-10-02T05:02:31.057Z,8.63
2018-10-02T05:07:14.899Z,9.33
2018-10-02T05:11:58.932Z,9.30
2018-10-02T05:16:43.074Z,10.97
2018-10-02T05:21:27.421Z,8.70
2018-10-02T05:26:11.508Z,9.43
2018-10-02T05:30:55.573Z,10.30
2018-10-02T05:35:39.625Z,10.40
2018-10-02T05:40:23.701Z,10.67
2018-10-02T05:45:08.450Z,8.80
2018-10-02T05:49:52.577Z,9.40
2018-10-02T05:54:37.479Z,9.33
2018-10-02T05:59:21.487Z,8.33
2018-10-02T06:04:06.221Z,9.37
2018-10-02T06:08:50.461Z,8.40
2018-10-02T06:13:35.611Z,8.53
2018-10-02T06:18:19.605Z,8.53
2018-10-02T06:23:03.577Z,7.63
2018-10-02T06:27:48.773Z,8.60
2018-10-02T06:32:32.795Z,8.67
2018-10-02T06:37:17.289Z,7.77
2018-10-02T06:42:02.155Z,6.60
2018-10-02T06:46:46.899Z,6.60
2018-10-02T06:51:31.211Z,6.10
2018-10-02T06:56:14.987Z,5.93
2018-10-02T07:00:58.828Z,5.20
2018-10-02T07:05:42.610Z,5.33
2018-10-02T07:10:26.649Z,5.17
2018-10-02T07:15:10.607Z,5.00
2018-10-02T07:19:54.437Z,4.00
2018-10-02T07:24:38.144Z,4.53
2018-10-02T07:29:21.912Z,4.60
2018-10-02T07:34:05.837Z,4.10
2018-10-02T07:38:49.700Z,4.40
2018-10-02T07:43:33.599Z,3.93
2018-10-02T07:48:17.368Z,3.50
2018-10-02T07:53:01.115Z,3.53
2018-10-02T07:57:45.022Z,3.63
2018-10-02T08:02:28.968Z,3.40
2018-10-02T08:07:12.846Z,3.13
2018-10-02T08:11:56.572Z,2.87
2018-10-02T08:16:40.694Z,3.03
2018-10-02T08:21:24.764Z,3.63
2018-10-02T08:26:08.628Z,2.80
2018-10-02T08:30:52.532Z,2.77
2018-10-02T08:35:36.528Z,2.00
2018-10-02T08:40:20.204Z,1.90
2018-10-02T08:45:04.025Z,2.30
2018-10-02T08:49:47.893Z,2.30
2018-10-02T08:54:31.762Z,1.60
2018-10-02T08:59:15.538Z,1.80
2018-10-02T09:03:59.345Z,1.83
2018-10-02T09:08:43.093Z,2.13
2018-10-02T09:13:26.823Z,1.90
2018-10-02T09:18:10.761Z,1.73
2018-10-02T09:22:55.414Z,1.73
2018-10-02T09:27:39.228Z,2.17
2018-10-02T09:32:28.388Z,1.53
2018-10-02T09:37:17.422Z,1.47
2018-10-02T09:42:06.569Z,2.17
2018-10-02T09:46:50.464Z,1.23
2018-10-02T09:51:34.335Z,1.50
2018-10-02T09:56:17.986Z,1.50
2018-10-02T10:01:06.138Z,1.33
2018-10-02T10:05:49.882Z,1.67
2018-10-02T10:10:33.792Z,1.47
2018-10-02T10:15:17.672Z,1.57
2018-10-02T10:20:01.598Z,1.90
2018-10-02T10:24:45.640Z,1.30
2018-10-02T10:29:29.397Z,1.27
2018-10-02T10:34:13.316Z,1.43
2018-10-02T10:38:57.019Z,1.20
2018-10-02T10:43:40.984Z,1.30
2018-10-02T10:48:25.527Z,1.20
2018-10-02T10:53:09.607Z,1.40
2018-10-02T10:57:53.572Z,1.40
2018-10-02T11:02:37.353Z,1.47
2018-10-02T11:07:21.176Z,1.20
2018-10-02T11:12:05.110Z,1.40
2018-10-02T11:16:48.940Z,1.20
2018-10-02T11:21:32.896Z,1.23
2018-10-02T11:26:16.724Z,1.40
2018-10-02T11:31:00.540Z,1.20
2018-10-02T11:35:44.520Z,1.07
2018-10-02T11:40:28.430Z,1.20
2018-10-02T11:45:13.160Z,1.23
2018-10-02T11:49:57.076Z,1.47
2018-10-02T11:54:40.788Z,1.67
2018-10-02T11:59:24.695Z,1.40
2018-10-02T12:04:08.500Z,1.23
2018-10-02T12:08:52.260Z,1.57
2018-10-02T12:13:36.041Z,1.60
2018-10-02T12:18:20.554Z,1.20
2018-10-02T12:23:04.337Z,1.30
2018-10-02T12:27:48.140Z,1.93
2018-10-02T12:32:31.934Z,1.93
2018-10-02T12:37:16.151Z,2.13
2018-10-02T12:41:59.918Z,2.03
2018-10-02T12:46:44.383Z,3.00
2018-10-02T12:51:28.268Z,2.57
2018-10-02T12:56:12.786Z,2.57
2018-10-02T13:00:56.948Z,2.40
2018-10-02T13:05:42.166Z,3.00
2018-10-02T13:10:25.900Z,2.40
2018-10-02T13:15:09.686Z,2.27
2018-10-02T13:19:53.413Z,2.10
2018-10-02T13:24:37.220Z,2.03
2018-10-02T13:29:21.054Z,2.10
2018-10-02T13:34:05.068Z,1.93
2018-10-02T13:38:48.838Z,1.70
2018-10-02T13:43:32.647Z,2.10
2018-10-02T13:48:16.502Z,2.13
2018-10-02T13:53:00.393Z,1.77
2018-10-02T13:57:44.170Z,1.70
2018-10-02T14:02:28.012Z,1.80
2018-10-02T14:07:11.904Z,1.90
2018-10-02T14:11:55.873Z,1.83
2018-10-02T14:16:39.625Z,1.77
2018-10-02T14:21:23.599Z,1.60
2018-10-02T14:26:07.337Z,1.77
2018-10-02T14:30:52.316Z,1.60
2018-10-02T14:35:36.355Z,1.47
2018-10-02T14:40:20.096Z,1.73
2018-10-02T14:45:03.993Z,1.37
2018-10-02T14:49:48.615Z,1.50
2018-10-02T14:54:32.606Z,1.27
2018-10-02T14:59:16.678Z,1.37
2018-10-02T15:04:00.867Z,1.13
2018-10-02T15:08:45.047Z,1.57
2018-10-02T15:13:28.917Z,1.10
2018-10-02T15:18:12.815Z,1.50
2018-10-02T15:22:56.691Z,1.07
2018-10-02T15:27:40.651Z,1.10
2018-10-02T15:32:24.853Z,0.90
2018-10-02T15:37:09.441Z,1.40
2018-10-02T15:41:53.164Z,1.33
2018-10-02T15:46:37.867Z,1.17
2018-10-02T15:51:22.329Z,1.33
2018-10-02T15:56:07.410Z,0.93
2018-10-02T16:00:53.158Z,1.00
2018-10-02T16:05:37.286Z,1.03
2018-10-02T16:10:21.171Z,1.27
2018-10-02T16:15:05.689Z,1.13
2018-10-02T16:19:50.001Z,1.10
2018-10-02T16:24:33.962Z,1.10
2018-10-02T16:29:18.339Z,1.03
2018-10-02T16:34:02.372Z,0.90
2018-10-02T16:38:51.518Z,1.47
2018-10-02T16:43:35.716Z,1.20
2018-10-02T16:48:23.181Z,1.37
2018-10-02T16:53:09.593Z,1.27
2018-10-02T16:57:57.820Z,1.40
2018-10-02T17:02:47.236Z,1.40
2018-10-02T17:07:35.528Z,1.57
2018-10-02T17:12:19.812Z,1.80
2018-10-02T17:17:04.499Z,1.40
2018-10-02T17:21:51.360Z,1.47
2018-10-02T17:26:35.598Z,1.80
2018-10-02T17:31:20.168Z,1.47
2018-10-02T17:36:07.769Z,1.53
2018-10-02T17:40:59.567Z,1.50
2018-10-02T17:45:44.958Z,1.67
2018-10-02T17:50:30.517Z,1.40
2018-10-02T17:55:14.555Z,1.37
2018-10-02T17:59:58.658Z,1.87
2018-10-02T18:04:43.211Z,2.33
2018-10-02T18:09:27.979Z,3.13
2018-10-02T18:14:12.536Z,2.40
2018-10-02T18:18:59.661Z,1.73
2018-10-02T18:23:43.987Z,2.00
2018-10-02T18:28:28.599Z,2.03
2018-10-02T18:33:14.154Z,2.00
2018-10-02T18:38:01.716Z,1.70
2018-10-02T18:42:46.043Z,1.60
2018-10-02T18:47:31.105Z,2.80
2018-10-02T18:52:14.945Z,1.33
2018-10-02T18:57:01.036Z,1.13
2018-10-02T19:01:45.121Z,1.20
2018-10-02T19:06:30.521Z,1.30
2018-10-02T19:11:20.642Z,1.43
2018-10-02T19:16:11.951Z,1.33
2018-10-02T19:20:57.920Z,1.33
2018-10-02T19:25:47.014Z,1.10
2018-10-02T19:30:40.246Z,1.40
2018-10-02T19:35:25.082Z,1.60
2018-10-02T19:40:08.930Z,1.30
2018-10-02T19:44:53.138Z,1.30
2018-10-02T19:49:52.552Z,1.27
2018-10-02T19:54:37.483Z,1.40
2018-10-02T19:59:22.681Z,1.23
2018-10-02T20:04:07.999Z,1.40
2018-10-02T20:08:52.626Z,1.60
2018-10-02T20:13:40.440Z,1.37
2018-10-02T20:18:24.228Z,1.60
2018-10-02T20:23:08.148Z,1.90
2018-10-02T20:27:51.854Z,1.80
2018-10-02T20:32:35.482Z,1.90
2018-10-02T20:37:19.285Z,2.00
2018-10-02T20:42:04.000Z,2.10
2018-10-02T20:46:47.746Z,2.10
2018-10-02T20:51:31.788Z,2.27
2018-10-02T20:56:16.777Z,1.97
2018-10-02T21:01:00.863Z,2.27
2018-10-02T21:05:44.635Z,2.33
2018-10-02T21:10:28.861Z,2.40
2018-10-02T21:15:13.001Z,2.90
2018-10-02T21:19:56.975Z,2.50
2018-10-02T21:24:40.800Z,2.90
2018-10-02T21:29:24.701Z,2.73
2018-10-02T21:34:08.419Z,2.77
2018-10-02T21:38:52.817Z,3.40
2018-10-02T21:43:37.714Z,3.50
2018-10-02T21:48:21.625Z,3.50
2018-10-02T21:53:06.790Z,2.93
2018-10-02T21:57:50.569Z,3.30
2018-10-02T22:02:35.213Z,3.53
2018-10-02T22:07:21.864Z,3.20
2018-10-02T22:12:05.984Z,3.80
2018-10-02T22:16:49.849Z,4.47
2018-10-02T22:21:33.893Z,3.97
2018-10-02T22:26:17.989Z,3.83
2018-10-02T22:31:01.917Z,4.00
2018-10-02T22:35:45.796Z,4.47
2018-10-02T22:40:30.945Z,4.03
2018-10-02T22:45:15.056Z,4.60
2018-10-02T22:49:59.013Z,4.13
2018-10-02T22:54:43.033Z,5.27
2018-10-02T22:59:26.893Z,4.77
2018-10-02T23:04:11.747Z,5.43
2018-10-02T23:08:55.521Z,5.07
2018-10-02T23:13:39.528Z,6.27
2018-10-02T23:18:23.543Z,5.43
2018-10-02T23:23:07.395Z,5.47
2018-10-02T23:27:51.271Z,5.03
2018-10-02T23:32:35.271Z,5.20
2018-10-02T23:37:19.323Z,5.20
2018-10-02T23:42:03.166Z,5.53
2018-10-02T23:46:47.065Z,5.90
2018-10-02T23:51:31.038Z,5.77
2018-10-02T23:56:14.873Z,5.60
